Etusivu
METAR-TAF:

METAR-TAF

Lentoasemat :

Arad, Romania

Leveyspiiri: 46-12N, Pituuspiiri: 021-24E, korkeus merenpinnasta: 117 m

Tämänhetkinen sää

Tämä raportti tehtiin 11 minuuttia sitten, kello 10.30 UTC
Tuuli 11 kn etelästä, vaihdellen kaakon ja etelän/lounaan välillä
Lämpötila 3°C
Kosteus 100%
Ilmanpaine 1020 hPa
Näkyvyys 10 km tai enemmän
Hajanaisia pilviä 700 ft:n korkeudessa
Hajonneita pilviä 1100 ft:n korkeudessa

METAR: LRAR 291030Z 17011KT 140V200 9999 SCT007 BKN011 03/03 Q1020

Aika: 12:41 (10:41 UTC)

Sääennuste

Tämä raportti tehtiin 25 minuuttia sitten, kello 10.16 UTC
Ennuste voimassa 29. päivästä klo 10 UTC - 29. päivään klo 18 UTC
Tuuli 12 kn etelästä
Näkyvyys 10 km tai enemmän
Hajonneita pilviä 500 ft:n korkeudessa
Tulossa
29. päivästä klo 10 UTC - 29. päivään klo 12 UTC
Näkyvyys 10 km tai enemmän
ei pilviä alle 1500 m:ssä eikä cumulonimbus-pilviä

TAF: LRAR 291016Z 2910/2918 18012KT 9999 BKN005 BECMG 2910/2912 CAVOK

Säähavainnot ja -ennusteet yli 4000 lentoasemalta (METAR- ja TAF-raportit).

Käytössä olevat sääasemat on merkitty karttaan keltaisilla ja punaisilla pisteillä.

Aseta hiiri pisteen päälle nähdäksesi sääaseman nimen.

Klikkaa sitten nähdäksesi säähavainnot ja -ennusteet.

Kartan vaihtaminen: klikkaa mustalla rastilla varustettuja vihreitä pisteitä, niin voit zoomata sisään; viivalla varustettua vihreää pistettä, niin voit zoomata ulos tai vihreitä nuolia, niin pääset viereisille kartoille.


METAR-TAF: